Time;durP1;ratioP1;P1;durP2;ratioP2;P2;SDS_P1;SDS_P2;PMS_P1;PMS_P2;Temp;Humidity;BMP_temperature;BMP_pressure;BME280_temperature;BME280_humidity;BME280_pressure;Samples;Min_cycle;Max_cycle;Signal;HPM_P1;HPM_P2
2022/10/05 00:00:41;;;;;;;4.53;1.20;;;;;;;20.18;nan;101647.91;6196045;23;20486;-88
2022/10/05 00:03:09;;;;;;;8.53;1.33;;;;;;;20.30;nan;101643.22;6219079;23;20446;-88
2022/10/05 00:05:37;;;;;;;10.40;1.60;;;;;;;20.32;nan;101641.06;6219591;23;20756;-88
2022/10/05 00:08:22;;;;;;;7.03;1.40;;;;;;;20.22;nan;101646.31;6195072;23;20397;-88
2022/10/05 00:10:50;;;;;;;6.57;1.20;;;;;;;20.09;nan;101636.28;6195833;23;20410;-88
2022/10/05 00:13:34;;;;;;;10.20;1.60;;;;;;;19.95;nan;101630.06;6185212;23;20877;-88
2022/10/05 00:16:09;;;;;;;3.30;1.30;;;;;;;19.89;nan;101631.00;6195553;23;20402;-88
2022/10/05 00:18:37;;;;;;;5.60;1.43;;;;;;;19.77;nan;101627.31;6245844;23;20406;-88
2022/10/05 00:28:06;;;;;;;5.70;1.50;;;;;;;20.32;nan;101622.47;6245865;23;20403;-88
2022/10/05 00:30:35;;;;;;;7.80;1.23;;;;;;;20.43;nan;101615.28;6219541;23;20399;-89
2022/10/05 00:41:08;;;;;;;4.13;1.67;;;;;;;20.85;nan;101635.53;6246016;23;20731;-89
2022/10/05 00:44:03;;;;;;;10.80;1.63;;;;;;;20.79;nan;101630.06;6219142;23;20446;-89
2022/10/05 00:46:42;;;;;;;5.10;1.40;;;;;;;20.67;nan;101624.53;6245923;23;20453;-89
2022/10/05 00:49:34;;;;;;;8.93;1.77;;;;;;;20.58;nan;101629.59;6219040;23;20415;-89
2022/10/05 00:52:47;;;;;;;10.50;1.80;;;;;;;20.37;nan;101621.81;6219657;23;20418;-90
2022/10/05 00:55:21;;;;;;;5.00;1.20;;;;;;;20.24;nan;101633.91;6106906;23;20497;-89
2022/10/05 00:58:11;;;;;;;6.40;1.50;;;;;;;20.13;nan;101633.88;6125001;23;20430;-89
2022/10/05 01:00:53;;;;;;;4.30;1.63;;;;;;;19.98;nan;101620.44;6101821;23;20529;-89
2022/10/05 01:03:45;;;;;;;9.23;1.70;;;;;;;19.93;nan;101626.69;6078873;23;20449;-89
2022/10/05 01:06:22;;;;;;;5.70;1.40;;;;;;;19.83;nan;101614.44;6105090;23;20956;-89
2022/10/05 01:09:25;;;;;;;6.27;1.43;;;;;;;19.79;nan;101622.41;6125942;23;20406;-89
2022/10/05 01:11:58;;;;;;;6.30;1.17;;;;;;;19.71;nan;101617.16;6100947;23;20410;-89
2022/10/05 01:14:41;;;;;;;2.47;1.50;;;;;;;19.65;nan;101623.63;6125101;23;20417;-89
2022/10/05 01:47:29;;;;;;;9.67;1.20;;;;;;;19.60;nan;101612.41;6247363;23;20358;-88
2022/10/05 01:50:05;;;;;;;5.73;1.30;;;;;;;19.58;nan;101606.22;6245446;23;20411;-89
2022/10/05 01:52:49;;;;;;;6.57;1.30;;;;;;;19.56;nan;101609.25;6220879;23;20724;-88
2022/10/05 01:55:30;;;;;;;4.40;1.57;;;;;;;19.47;nan;101601.41;6245531;23;20457;-88
2022/10/05 01:58:31;;;;;;;5.20;1.90;;;;;;;19.47;nan;101609.72;6154815;23;20439;-89
2022/10/05 02:01:04;;;;;;;9.93;1.67;;;;;;;19.33;nan;101590.50;6176209;23;20482;-89
2022/10/05 02:03:52;;;;;;;11.40;1.37;;;;;;;19.32;nan;101597.13;6166338;23;20446;-89
2022/10/05 02:06:32;;;;;;;8.10;1.60;;;;;;;19.26;nan;101591.63;6144434;23;20412;-89
2022/10/05 02:09:38;;;;;;;5.67;1.90;;;;;;;19.29;nan;101603.13;6167742;23;20491;-89
2022/10/05 02:12:12;;;;;;;8.10;2.20;;;;;;;19.13;nan;101591.78;6190621;23;20400;-89
2022/10/05 02:14:43;;;;;;;4.90;1.60;;;;;;;19.09;nan;101585.84;6141646;23;20412;-89
2022/10/05 02:17:18;;;;;;;9.90;1.83;;;;;;;19.11;nan;101594.78;6166834;23;20408;-89
2022/10/05 02:20:00;;;;;;;12.57;1.83;;;;;;;18.99;nan;101580.00;6165965;23;20408;-88
2022/10/05 02:22:36;;;;;;;5.37;1.47;;;;;;;18.94;nan;101577.06;6168182;23;20447;-89
2022/10/05 02:25:08;;;;;;;13.03;2.17;;;;;;;18.82;nan;101570.59;6141779;23;20473;-89
2022/10/05 02:28:09;;;;;;;5.20;1.43;;;;;;;18.87;nan;101595.66;6166462;23;20402;-89
2022/10/05 02:30:47;;;;;;;6.80;1.70;;;;;;;18.82;nan;101588.06;6190471;23;20874;-89
2022/10/05 02:33:29;;;;;;;8.93;1.63;;;;;;;18.81;nan;101594.69;6165891;23;20891;-90
2022/10/05 02:36:13;;;;;;;16.33;1.47;;;;;;;18.82;nan;101595.53;6192778;23;20486;-90
2022/10/05 02:38:55;;;;;;;10.97;2.10;;;;;;;18.75;nan;101592.81;6189882;23;20415;-90
2022/10/05 02:41:36;;;;;;;7.33;1.70;;;;;;;18.65;nan;101584.19;6165350;23;20550;-89
2022/10/05 02:44:19;;;;;;;17.93;2.77;;;;;;;18.68;nan;101593.94;6166048;23;20454;-89
2022/10/05 02:46:59;;;;;;;9.60;1.73;;;;;;;18.52;nan;101578.69;6215311;23;20535;-90
2022/10/05 02:49:51;;;;;;;3.50;1.60;;;;;;;18.48;nan;101577.44;6168374;23;20408;-89
2022/10/05 02:52:31;;;;;;;8.30;1.57;;;;;;;18.55;nan;101592.94;6192124;23;20487;-90
2022/10/05 02:55:12;;;;;;;7.63;1.63;;;;;;;18.49;nan;101596.59;6190093;23;20549;-89
2022/10/05 02:58:07;;;;;;;12.83;1.90;;;;;;;18.49;nan;101591.06;6165439;23;20442;-89
2022/10/05 03:00:45;;;;;;;8.63;1.50;;;;;;;18.40;nan;101586.06;6190056;23;20483;-89
2022/10/05 03:03:41;;;;;;;7.57;1.80;;;;;;;18.43;nan;101592.00;6142141;23;20435;-89
2022/10/05 03:06:32;;;;;;;20.23;1.30;;;;;;;18.38;nan;101589.03;6190243;23;20463;-89
2022/10/05 03:09:05;;;;;;;9.70;1.63;;;;;;;18.34;nan;101587.78;6169181;23;20403;-89
2022/10/05 03:12:03;;;;;;;10.23;1.73;;;;;;;18.36;nan;101591.19;6165448;23;20981;-89
2022/10/05 03:15:04;;;;;;;10.83;2.83;;;;;;;18.27;nan;101581.47;6189104;23;20411;-89
2022/10/05 03:29:07;;;;;;;6.87;1.40;;;;;;;18.06;nan;101573.53;6216120;23;20390;-89
2022/10/05 03:46:55;;;;;;;14.20;1.60;;;;;;;17.90;nan;101586.78;6216102;23;20364;-88
2022/10/05 03:49:44;;;;;;;7.93;1.43;;;;;;;17.77;nan;101556.47;6187661;23;20434;-89
2022/10/05 03:52:46;;;;;;;11.83;1.80;;;;;;;17.84;nan;101579.41;6165718;23;20407;-89
2022/10/05 03:55:29;;;;;;;5.47;1.60;;;;;;;17.80;nan;101580.91;6156709;23;20403;-90
2022/10/05 03:58:15;;;;;;;8.00;2.20;;;;;;;17.82;nan;101584.31;6191969;23;20449;-89
2022/10/05 04:16:30;;;;;;;3.67;1.10;;;;;;;17.82;nan;101576.00;6215800;23;20433;-89
2022/10/05 04:23:17;;;;;;;15.57;2.17;;;;;;;17.79;nan;101581.13;6215646;23;20916;-89
2022/10/05 04:25:53;;;;;;;21.17;1.83;;;;;;;17.65;nan;101565.69;6190497;23;20422;-89
2022/10/05 04:28:34;;;;;;;9.70;2.20;;;;;;;17.74;nan;101581.78;6190138;23;20898;-88
2022/10/05 04:31:17;;;;;;;4.27;1.60;;;;;;;17.68;nan;101584.59;6191242;23;20411;-88
2022/10/05 05:12:45;;;;;;;12.43;1.83;;;;;;;17.99;nan;101600.38;6217442;23;20502;-89
2022/10/05 05:15:20;;;;;;;18.47;2.23;;;;;;;18.11;nan;101593.06;6190632;23;20941;-88
2022/10/05 05:18:24;;;;;;;15.00;2.03;;;;;;;18.09;nan;101578.63;6190732;23;20407;-90
2022/10/05 05:21:19;;;;;;;9.90;1.87;;;;;;;18.25;nan;101603.00;6194849;23;20479;-89
2022/10/05 08:05:10;;;;;;;26.80;3.87;;;;;;;19.45;nan;101656.25;6215801;23;20378;-89
2022/10/05 10:21:15;;;;;;;21.53;3.50;;;;;;;;;;6154724;23;20729;-91
2022/10/05 10:31:14;;;;;;;29.17;2.97;;;;;;;26.98;nan;101752.97;6154945;23;20384;-92
2022/10/05 10:34:07;;;;;;;30.87;3.73;;;;;;;27.12;nan;101742.91;6154044;23;20405;-90
2022/10/05 10:44:36;;;;;;;22.87;3.00;;;;;;;27.40;nan;101759.16;6199111;23;20444;-91
2022/10/05 10:47:35;;;;;;;19.87;3.23;;;;;;;27.43;nan;101752.16;6189781;23;20442;-89
2022/10/05 10:50:43;;;;;;;14.23;3.83;;;;;;;27.53;nan;101752.97;6168984;23;20412;-89
2022/10/05 10:53:24;;;;;;;24.73;4.00;;;;;;;27.59;nan;101751.03;6190308;23;20414;-92
2022/10/05 10:56:25;;;;;;;17.77;2.50;;;;;;;27.69;nan;101753.00;6189700;23;20411;-89
2022/10/05 10:59:18;;;;;;;17.37;3.43;;;;;;;27.79;nan;101759.41;6190945;23;20515;-90
2022/10/05 11:59:33;;;;;;;24.10;3.60;;;;;;;29.95;nan;101713.50;6250360;23;20386;-94
2022/10/05 12:02:19;;;;;;;34.10;4.57;;;;;;;30.01;nan;101701.91;6131977;23;20926;-94
2022/10/05 12:08:20;;;;;;;16.10;3.40;;;;;;;30.21;nan;101701.59;6155669;23;20417;-89
2022/10/05 12:11:06;;;;;;;20.07;2.97;;;;;;;30.27;nan;101701.56;6105897;23;20475;-93
2022/10/05 12:14:23;;;;;;;19.63;2.30;;;;;;;30.36;nan;101696.94;6134006;23;20459;-94
2022/10/05 12:17:20;;;;;;;32.83;3.60;;;;;;;30.42;nan;101690.88;6154143;23;20926;-90
2022/10/05 12:19:53;;;;;;;19.23;3.40;;;;;;;30.49;nan;101682.06;6106386;23;20409;-91
2022/10/05 12:22:37;;;;;;;21.23;3.30;;;;;;;30.54;nan;101684.81;6095314;23;20409;-90
2022/10/05 12:25:16;;;;;;;19.70;3.60;;;;;;;30.60;nan;101694.88;6105270;23;21011;-90
2022/10/05 12:27:52;;;;;;;19.67;3.23;;;;;;;30.62;nan;101688.94;6129076;23;20517;-89
2022/10/05 12:30:26;;;;;;;15.33;3.20;;;;;;;30.66;nan;101693.66;6104896;23;20412;-90
2022/10/05 12:33:07;;;;;;;26.67;3.20;;;;;;;30.67;nan;101686.88;6152676;23;20914;-89
2022/10/05 12:35:47;;;;;;;20.57;2.80;;;;;;;30.74;nan;101681.69;6130643;23;20420;-89
2022/10/05 12:38:33;;;;;;;28.30;2.50;;;;;;;30.83;nan;101685.50;6135934;23;20417;-89
2022/10/05 12:41:11;;;;;;;11.83;2.80;;;;;;;30.88;nan;101685.41;6214897;23;20788;-90
2022/10/05 12:44:04;;;;;;;27.47;3.73;;;;;;;30.92;nan;101680.00;6194988;23;20437;-96
2022/10/05 12:46:32;;;;;;;27.80;4.07;;;;;;;30.98;nan;101672.28;6198766;23;20402;-90
2022/10/05 12:49:42;;;;;;;17.57;3.47;;;;;;;31.03;nan;101677.81;6220346;23;20408;-89
2022/10/05 12:52:27;;;;;;;20.57;2.87;;;;;;;31.10;nan;101672.63;6125719;23;20485;-89
2022/10/05 12:55:24;;;;;;;15.43;2.90;;;;;;;31.15;nan;101664.94;6054069;23;20541;-89
2022/10/05 13:02:00;;;;;;;16.93;3.13;;;;;;;31.35;nan;101658.06;6067799;23;20391;-88
2022/10/05 13:04:39;;;;;;;33.37;3.50;;;;;;;31.37;nan;101666.22;6043528;23;20450;-88
2022/10/05 13:07:15;;;;;;;14.53;2.83;;;;;;;31.38;nan;101663.06;6043690;23;20399;-89
2022/10/05 13:10:14;;;;;;;16.37;3.20;;;;;;;31.38;nan;101662.22;6067549;23;20418;-89
2022/10/05 13:13:09;;;;;;;23.87;2.60;;;;;;;31.42;nan;101654.81;6010657;23;20414;-88
2022/10/05 13:15:46;;;;;;;25.13;3.20;;;;;;;31.43;nan;101648.84;6023542;23;20412;-89
2022/10/05 13:18:35;;;;;;;23.37;3.50;;;;;;;31.55;nan;101646.38;6019307;23;20410;-88
2022/10/05 13:21:08;;;;;;;21.90;3.07;;;;;;;31.60;nan;101657.56;6067342;23;20478;-88
2022/10/05 13:23:53;;;;;;;28.17;3.00;;;;;;;31.63;nan;101647.63;6020299;23;20450;-88
2022/10/05 13:26:36;;;;;;;22.17;3.30;;;;;;;31.66;nan;101649.00;6044120;23;20487;-88
2022/10/05 13:29:15;;;;;;;25.97;4.10;;;;;;;31.68;nan;101655.19;6103046;23;20411;-89
2022/10/05 13:31:56;;;;;;;49.77;3.60;;;;;;;31.66;nan;101646.19;6130436;23;20408;-88
2022/10/05 13:50:13;;;;;;;24.20;3.30;;;;;;;31.66;nan;101630.06;6154961;23;20361;-89
2022/10/05 13:52:52;;;;;;;13.73;2.80;;;;;;;31.68;nan;101616.44;6106162;23;20416;-89
2022/10/05 13:55:44;;;;;;;15.63;2.73;;;;;;;31.77;nan;101613.69;6124348;23;20448;-89
2022/10/05 13:58:35;;;;;;;18.50;3.00;;;;;;;31.80;nan;101607.41;6104851;23;20402;-89
2022/10/05 14:01:07;;;;;;;15.43;2.80;;;;;;;31.82;nan;101605.13;6102922;23;20402;-88
2022/10/05 14:03:37;;;;;;;13.97;2.97;;;;;;;31.89;nan;101603.56;6053973;23;20438;-88
2022/10/05 14:06:13;;;;;;;10.03;2.60;;;;;;;31.86;nan;101607.00;6101150;23;20414;-88
2022/10/05 14:08:48;;;;;;;24.70;2.70;;;;;;;31.91;nan;101614.56;6138904;23;20403;-88
2022/10/05 14:11:35;;;;;;;12.93;2.40;;;;;;;31.85;nan;101607.31;6190809;23;20406;-89
2022/10/05 14:14:12;;;;;;;20.40;2.93;;;;;;;31.85;nan;101607.31;6138517;23;20411;-88
2022/10/05 14:16:50;;;;;;;14.03;2.27;;;;;;;31.81;nan;101603.44;6095746;23;20410;-89
2022/10/05 14:19:25;;;;;;;24.47;2.57;;;;;;;31.74;nan;101603.06;6112365;23;20405;-89
2022/10/05 14:22:12;;;;;;;23.60;3.70;;;;;;;31.73;nan;101596.56;6100792;23;20488;-89
2022/10/05 14:24:53;;;;;;;16.57;2.27;;;;;;;31.77;nan;101588.25;6101156;23;20579;-89
2022/10/05 14:27:26;;;;;;;12.90;2.97;;;;;;;31.79;nan;101580.28;6101072;23;20406;-88
2022/10/05 14:29:58;;;;;;;16.70;2.90;;;;;;;31.87;nan;101576.75;6124847;23;20505;-88
2022/10/05 14:32:31;;;;;;;21.50;2.87;;;;;;;31.88;nan;101587.72;6101069;23;20489;-89
2022/10/05 14:35:11;;;;;;;21.70;3.00;;;;;;;31.78;nan;101596.44;6120456;23;20412;-88
2022/10/05 14:38:01;;;;;;;17.10;2.43;;;;;;;31.76;nan;101578.09;6190120;23;20909;-89
2022/10/05 14:40:55;;;;;;;15.70;2.03;;;;;;;31.74;nan;101588.91;6166021;23;20418;-88
2022/10/05 14:43:23;;;;;;;12.83;2.40;;;;;;;31.57;nan;101581.00;6190118;23;20407;-89
2022/10/05 14:46:13;;;;;;;5.83;1.87;;;;;;;31.51;nan;101585.97;6165391;23;20418;-88
2022/10/05 14:48:44;;;;;;;8.37;1.60;;;;;;;31.48;nan;101595.06;6141063;23;20535;-88
2022/10/05 14:51:29;;;;;;;12.83;2.10;;;;;;;31.43;nan;101595.16;6164464;23;20422;-89
2022/10/05 14:54:24;;;;;;;10.30;2.20;;;;;;;31.39;nan;101594.09;6179498;23;20521;-89
2022/10/05 14:57:10;;;;;;;14.33;2.47;;;;;;;31.34;nan;101602.69;6174398;23;20529;-88
2022/10/05 15:00:17;;;;;;;12.07;1.70;;;;;;;31.27;nan;101590.97;6246568;23;20739;-89
2022/10/05 15:03:30;;;;;;;12.00;1.93;;;;;;;31.05;nan;101597.28;6220837;23;20726;-89
2022/10/05 15:06:00;;;;;;;7.53;1.77;;;;;;;30.95;nan;101591.00;6100385;23;20405;-88
2022/10/05 15:08:52;;;;;;;13.20;1.73;;;;;;;30.71;nan;101586.31;6076533;23;20421;-89
2022/10/05 15:11:31;;;;;;;24.23;2.00;;;;;;;30.66;nan;101582.75;6099992;23;20968;-89
2022/10/05 15:13:59;;;;;;;16.23;1.77;;;;;;;30.54;nan;101574.75;6096243;23;20575;-88
2022/10/05 15:16:30;;;;;;;10.60;2.60;;;;;;;30.53;nan;101571.06;6066052;23;20410;-89
2022/10/05 15:19:13;;;;;;;14.47;2.03;;;;;;;30.60;nan;101572.72;6076625;23;20417;-89
2022/10/05 15:21:59;;;;;;;13.30;2.57;;;;;;;30.59;nan;101569.06;6124609;23;20756;-89
2022/10/05 15:24:56;;;;;;;26.67;2.60;;;;;;;30.66;nan;101577.94;6124350;23;20441;-89
2022/10/05 15:28:05;;;;;;;13.90;2.30;;;;;;;30.76;nan;101577.78;6074510;23;20414;-89
2022/10/05 15:30:35;;;;;;;16.73;2.23;;;;;;;30.80;nan;101566.69;6114356;23;20414;-88
2022/10/05 15:33:26;;;;;;;17.40;2.17;;;;;;;30.75;nan;101559.16;6100310;23;20417;-88
2022/10/05 15:36:01;;;;;;;18.20;2.10;;;;;;;30.87;nan;101567.13;6080369;23;20522;-89
2022/10/05 15:38:52;;;;;;;8.47;2.07;;;;;;;30.91;nan;101557.72;6124323;23;20928;-89
2022/10/05 15:42:30;;;;;;;10.40;2.13;;;;;;;30.95;nan;101557.13;6118646;23;20606;-88
2022/10/05 15:45:15;;;;;;;18.70;2.13;;;;;;;30.95;nan;101557.13;6110247;23;20448;-89
2022/10/05 15:48:04;;;;;;;17.80;2.50;;;;;;;30.97;nan;101555.66;6129193;23;20488;-89
2022/10/05 15:50:40;;;;;;;29.97;2.40;;;;;;;30.95;nan;101551.47;6132820;23;20405;-89
2022/10/05 15:54:39;;;;;;;19.20;2.70;;;;;;;30.93;nan;101554.59;6153792;23;20404;-89
2022/10/05 15:56:51;;;;;;;13.53;2.37;;;;;;;30.86;nan;101549.34;6065850;23;20438;-89
2022/10/05 15:59:39;;;;;;;11.10;2.40;;;;;;;30.87;nan;101548.19;6064952;23;20490;-89
2022/10/05 16:02:15;;;;;;;17.93;2.70;;;;;;;30.83;nan;101549.97;6065755;23;20410;-89
2022/10/05 16:04:53;;;;;;;13.53;2.50;;;;;;;30.84;nan;101550.81;6065593;23;20439;-89
2022/10/05 16:10:21;;;;;;;20.23;3.27;;;;;;;30.75;nan;101550.69;5961748;24;20418;-90
2022/10/05 16:13:07;;;;;;;10.00;2.40;;;;;;;30.68;nan;101558.72;5935281;24;20446;-88
2022/10/05 16:15:41;;;;;;;17.73;2.53;;;;;;;30.42;nan;101549.81;5980001;24;20506;-90
2022/10/05 16:18:41;;;;;;;23.67;4.17;;;;;;;30.19;nan;101562.06;5934722;24;20422;-88
2022/10/05 16:21:17;;;;;;;13.87;2.90;;;;;;;30.03;nan;101557.75;5951512;24;20421;-89
2022/10/05 16:23:50;;;;;;;13.97;2.47;;;;;;;29.88;nan;101555.97;5958512;24;20409;-89
2022/10/05 16:26:25;;;;;;;16.10;2.97;;;;;;;29.66;nan;101550.09;6097705;23;20786;-89
2022/10/05 16:29:10;;;;;;;32.67;3.77;;;;;;;29.61;nan;101555.81;6079195;23;20405;-89
2022/10/05 16:31:55;;;;;;;29.63;3.40;;;;;;;29.43;nan;101572.38;6101529;23;20410;-89
2022/10/05 16:34:45;;;;;;;32.07;3.80;;;;;;;29.24;nan;101571.44;6245263;23;20410;-89
2022/10/05 16:37:22;;;;;;;22.27;3.10;;;;;;;29.12;nan;101576.63;6197137;23;20407;-88
2022/10/05 16:40:04;;;;;;;16.53;3.17;;;;;;;28.99;nan;101577.34;6221625;23;20398;-88
2022/10/05 16:42:48;;;;;;;14.30;2.67;;;;;;;28.85;nan;101578.03;6197069;23;20492;-88
2022/10/05 16:45:27;;;;;;;19.00;2.77;;;;;;;28.77;nan;101586.25;6197963;23;20852;-89
2022/10/05 16:48:30;;;;;;;17.73;3.40;;;;;;;28.67;nan;101581.53;6223075;23;20402;-89
2022/10/05 16:51:02;;;;;;;24.90;3.20;;;;;;;28.55;nan;101589.53;6209220;23;20406;-89
2022/10/05 16:54:13;;;;;;;25.57;3.67;;;;;;;28.46;nan;101591.28;6125668;23;20492;-88
2022/10/05 16:57:05;;;;;;;32.00;3.53;;;;;;;28.30;nan;101598.13;6107358;23;20532;-89
2022/10/05 16:59:47;;;;;;;16.03;3.50;;;;;;;28.15;nan;101613.94;6087155;23;20414;-89
2022/10/05 17:02:40;;;;;;;25.03;3.63;;;;;;;28.02;nan;101610.94;6010395;23;20550;-89
2022/10/05 17:05:27;;;;;;;21.50;3.07;;;;;;;27.82;nan;101597.84;5959167;24;20442;-89
2022/10/05 17:08:04;;;;;;;16.33;2.50;;;;;;;27.82;nan;101625.94;6005165;23;21083;-88
2022/10/05 17:10:53;;;;;;;27.73;3.70;;;;;;;27.71;nan;101632.75;6007509;23;20482;-89
2022/10/05 17:13:31;;;;;;;27.67;3.53;;;;;;;27.55;nan;101633.88;6096073;23;20410;-89
2022/10/05 17:16:05;;;;;;;20.60;3.10;;;;;;;27.47;nan;101636.16;6095685;23;20426;-89
2022/10/05 17:19:06;;;;;;;23.00;3.00;;;;;;;27.37;nan;101640.94;6096076;23;20838;-89
2022/10/05 17:21:48;;;;;;;31.33;4.00;;;;;;;27.25;nan;101644.06;6096060;23;20408;-88
2022/10/05 17:24:32;;;;;;;18.40;3.10;;;;;;;27.12;nan;101636.25;6096178;23;20466;-89
2022/10/05 17:27:18;;;;;;;32.93;3.87;;;;;;;26.99;nan;101640.44;6154480;23;20409;-89
2022/10/05 17:30:06;;;;;;;19.93;3.50;;;;;;;26.87;nan;101647.44;6216901;23;20490;-89
2022/10/05 17:32:35;;;;;;;12.00;3.00;;;;;;;26.64;nan;101646.88;6188473;23;20431;-88
2022/10/05 17:35:19;;;;;;;37.10;4.33;;;;;;;26.53;nan;101647.16;6166619;23;20720;-89
2022/10/05 17:38:20;;;;;;;31.50;4.60;;;;;;;26.40;nan;101671.78;6167256;23;20407;-89
2022/10/05 17:41:14;;;;;;;31.33;3.40;;;;;;;26.23;nan;101673.94;6189837;23;20403;-88
2022/10/05 17:44:14;;;;;;;26.47;3.40;;;;;;;26.09;nan;101675.59;6165597;23;20411;-89
2022/10/05 17:46:46;;;;;;;12.87;2.37;;;;;;;25.89;nan;101670.75;6216524;23;20403;-88
2022/10/05 17:49:36;;;;;;;28.40;4.63;;;;;;;25.68;nan;101674.56;6216723;23;20403;-88
2022/10/05 17:55:37;;;;;;;14.00;2.83;;;;;;;25.29;nan;101691.66;6115728;23;20436;-89
2022/10/05 17:58:22;;;;;;;23.87;3.23;;;;;;;25.10;nan;101684.78;6130128;23;20410;-88
2022/10/05 18:00:56;;;;;;;10.90;3.10;;;;;;;24.97;nan;101694.47;6154708;23;20405;-89
2022/10/05 18:03:42;;;;;;;17.00;2.70;;;;;;;24.84;nan;101691.22;6154652;23;20743;-89
2022/10/05 18:06:25;;;;;;;22.27;3.50;;;;;;;24.70;nan;101688.03;6154406;23;20441;-89
2022/10/05 18:09:31;;;;;;;14.70;2.80;;;;;;;24.61;nan;101695.22;6154525;23;20488;-89
2022/10/05 18:12:01;;;;;;;10.00;2.40;;;;;;;24.50;nan;101696.22;6066914;23;20408;-89
2022/10/05 18:14:49;;;;;;;16.30;2.90;;;;;;;24.42;nan;101700.34;6124893;23;20407;-88
2022/10/05 18:17:49;;;;;;;23.90;3.43;;;;;;;24.33;nan;101696.31;6080752;23;20422;-89
2022/10/05 18:20:25;;;;;;;11.60;3.00;;;;;;;24.24;nan;101701.53;6077053;23;20406;-88
2022/10/05 18:23:24;;;;;;;17.43;3.40;;;;;;;24.15;nan;101705.84;6124946;23;20406;-90
2022/10/05 18:26:15;;;;;;;11.03;2.30;;;;;;;24.05;nan;101703.78;6117208;23;20460;-89
2022/10/05 18:28:46;;;;;;;19.83;4.20;;;;;;;24.02;nan;101723.03;6103924;23;20415;-89
2022/10/05 18:31:35;;;;;;;17.23;3.40;;;;;;;23.93;nan;101724.56;6124666;23;20485;-88
2022/10/05 18:34:30;;;;;;;15.33;3.03;;;;;;;23.85;nan;101733.41;6100610;23;20489;-88
2022/10/05 18:37:37;;;;;;;17.13;3.50;;;;;;;23.71;nan;101721.75;6124518;23;20855;-89
2022/10/05 18:40:08;;;;;;;24.00;3.40;;;;;;;23.55;nan;101709.53;6124183;23;20406;-88
2022/10/05 18:42:49;;;;;;;19.20;3.60;;;;;;;23.52;nan;101725.94;6101094;23;20415;-89
2022/10/05 18:45:57;;;;;;;14.53;3.00;;;;;;;23.45;nan;101742.00;6101734;23;20472;-89
2022/10/05 18:48:49;;;;;;;19.37;2.60;;;;;;;23.33;nan;101740.13;6091589;23;20411;-89
2022/10/05 18:51:19;;;;;;;27.43;3.50;;;;;;;23.31;nan;101733.94;6144124;23;20483;-88
2022/10/05 18:54:18;;;;;;;23.43;3.10;;;;;;;23.27;nan;101729.16;6189890;23;20435;-88
2022/10/05 18:56:49;;;;;;;23.73;2.37;;;;;;;23.13;nan;101737.00;6182890;23;20554;-88
2022/10/05 18:59:38;;;;;;;18.50;3.23;;;;;;;23.06;nan;101730.75;6165919;23;20462;-88
2022/10/05 19:02:23;;;;;;;15.10;2.90;;;;;;;23.00;nan;101731.75;6141395;23;20519;-88
2022/10/05 19:05:03;;;;;;;17.23;2.93;;;;;;;22.96;nan;101733.34;6159361;23;20439;-88
2022/10/05 19:11:24;;;;;;;25.70;4.63;;;;;;;22.92;nan;101732.16;6216345;23;20370;-89
2022/10/05 19:14:20;;;;;;;18.47;4.90;;;;;;;22.88;nan;101729.06;6095066;23;20490;-88
2022/10/05 19:17:15;;;;;;;28.97;4.03;;;;;;;22.79;nan;101726.91;6071326;23;20438;-88
2022/10/05 19:20:16;;;;;;;33.83;3.83;;;;;;;22.77;nan;101743.88;6071491;23;20506;-88
2022/10/05 19:23:22;;;;;;;12.73;2.93;;;;;;;22.68;nan;101743.44;6071478;23;20934;-89
2022/10/05 19:26:13;;;;;;;31.13;4.17;;;;;;;22.53;nan;101742.25;6077996;23;21024;-89
2022/10/05 19:29:00;;;;;;;29.20;3.93;;;;;;;22.47;nan;101760.00;6054114;23;20414;-88
2022/10/05 19:31:40;;;;;;;22.17;3.63;;;;;;;22.27;nan;101749.28;6101387;23;20403;-88
2022/10/05 19:34:32;;;;;;;19.40;3.30;;;;;;;22.30;nan;101773.88;6165362;23;20415;-88
2022/10/05 19:37:14;;;;;;;22.20;3.93;;;;;;;22.21;nan;101772.53;6165221;23;20408;-88
2022/10/05 19:39:58;;;;;;;18.83;3.30;;;;;;;22.11;nan;101777.91;6167426;23;20411;-88
2022/10/05 19:43:10;;;;;;;23.43;2.93;;;;;;;22.02;nan;101774.66;6215564;23;20809;-88
2022/10/05 19:45:51;;;;;;;26.20;2.97;;;;;;;21.96;nan;101773.63;6080571;23;20534;-89
2022/10/05 19:48:43;;;;;;;20.27;4.40;;;;;;;21.96;nan;101784.78;6053809;23;21118;-88
2022/10/05 19:51:32;;;;;;;22.73;3.47;;;;;;;21.94;nan;101778.59;6124172;23;20414;-89
2022/10/05 19:54:09;;;;;;;28.13;2.90;;;;;;;21.90;nan;101774.63;6104155;23;20426;-89
2022/10/05 19:56:46;;;;;;;29.47;3.90;;;;;;;21.88;nan;101776.81;6078744;23;20948;-89
2022/10/05 19:59:18;;;;;;;31.33;4.27;;;;;;;21.86;nan;101778.16;6099761;23;20413;-89
2022/10/05 20:01:50;;;;;;;21.33;3.20;;;;;;;21.81;nan;101781.66;6099890;23;20410;-90
2022/10/05 20:04:43;;;;;;;13.33;3.70;;;;;;;21.73;nan;101784.81;6112923;23;20404;-89
2022/10/05 20:07:14;;;;;;;24.80;4.50;;;;;;;21.59;nan;101780.56;6164932;23;20415;-90
2022/10/05 20:09:59;;;;;;;15.50;2.67;;;;;;;21.49;nan;101780.34;6190140;23;20423;-89
2022/10/05 20:12:59;;;;;;;20.87;3.13;;;;;;;21.47;nan;101786.13;6164546;23;20906;-89
2022/10/05 20:21:42;;;;;;;18.90;3.20;;;;;;;21.16;nan;101789.22;6094828;23;20754;-89
2022/10/05 20:24:38;;;;;;;24.07;5.43;;;;;;;21.02;nan;101780.22;6094625;23;20427;-90
2022/10/05 20:27:15;;;;;;;27.13;4.20;;;;;;;20.95;nan;101785.03;6075016;23;20501;-90
2022/10/05 20:29:43;;;;;;;23.13;3.37;;;;;;;20.84;nan;101791.41;6050934;23;20410;-89
2022/10/05 20:32:13;;;;;;;25.13;4.20;;;;;;;20.87;nan;101807.59;6047477;23;20411;-89
2022/10/05 20:34:44;;;;;;;33.77;4.73;;;;;;;20.86;nan;101806.75;6023971;23;20408;-89
2022/10/05 20:37:13;;;;;;;19.00;2.87;;;;;;;20.83;nan;101793.31;6047753;23;20490;-89
2022/10/05 20:39:43;;;;;;;25.83;4.10;;;;;;;20.79;nan;101780.13;6046752;23;20418;-89
2022/10/05 20:42:13;;;;;;;31.50;3.90;;;;;;;20.88;nan;101800.97;6071064;23;20407;-89
2022/10/05 20:44:40;;;;;;;16.47;3.10;;;;;;;20.89;nan;101800.72;6047173;23;20418;-89
2022/10/05 20:47:09;;;;;;;36.10;4.37;;;;;;;20.82;nan;101791.63;6023451;23;20947;-89
2022/10/05 20:49:39;;;;;;;26.03;2.93;;;;;;;20.84;nan;101802.50;6024153;23;20933;-89
2022/10/05 20:52:09;;;;;;;14.03;4.07;;;;;;;20.78;nan;101795.13;6134549;23;20981;-90
2022/10/05 20:54:38;;;;;;;32.63;3.97;;;;;;;20.77;nan;101799.00;6175832;23;20435;-89
2022/10/05 20:57:06;;;;;;;27.47;3.93;;;;;;;20.74;nan;101799.47;6191746;23;20408;-89
2022/10/05 20:59:40;;;;;;;21.23;3.40;;;;;;;20.76;nan;101812.03;6172181;23;20486;-89
2022/10/05 21:02:10;;;;;;;30.47;3.37;;;;;;;20.63;nan;101793.59;6220800;23;20482;-89
2022/10/05 21:04:41;;;;;;;27.27;4.27;;;;;;;20.70;nan;101804.66;6194636;23;20505;-89
2022/10/05 21:07:09;;;;;;;21.80;4.57;;;;;;;20.62;nan;101805.81;6219437;23;20439;-90
2022/10/05 21:09:38;;;;;;;35.70;4.27;;;;;;;20.62;nan;101805.81;6195432;23;20972;-89
2022/10/05 21:12:06;;;;;;;25.07;3.50;;;;;;;20.57;nan;101811.25;6172573;23;21021;-89
2022/10/05 21:14:35;;;;;;;26.17;2.97;;;;;;;20.56;nan;101809.53;6196700;23;20418;-89
2022/10/05 21:17:05;;;;;;;26.27;3.40;;;;;;;20.54;nan;101817.25;6221626;23;20935;-91
2022/10/05 21:19:37;;;;;;;33.53;4.40;;;;;;;20.47;nan;101813.69;6196972;23;20733;-89
2022/10/05 21:22:07;;;;;;;23.53;4.10;;;;;;;20.46;nan;101811.16;6073466;23;20494;-90
2022/10/05 21:24:37;;;;;;;24.00;4.13;;;;;;;20.44;nan;101805.84;6049043;23;20422;-90
2022/10/05 21:27:05;;;;;;;32.00;3.80;;;;;;;20.43;nan;101806.06;6048986;23;20522;-89
2022/10/05 21:29:33;;;;;;;43.30;4.80;;;;;;;20.39;nan;101802.09;6048747;23;20411;-89
2022/10/05 21:32:01;;;;;;;29.23;3.50;;;;;;;20.36;nan;101808.91;6048793;23;20412;-89
2022/10/05 21:34:30;;;;;;;14.80;3.67;;;;;;;20.34;nan;101811.91;6049107;23;20490;-89
2022/10/05 21:36:57;;;;;;;23.30;3.23;;;;;;;20.33;nan;101810.22;6048827;23;20422;-89
2022/10/05 21:39:27;;;;;;;27.67;4.53;;;;;;;20.32;nan;101814.06;6071492;23;20407;-89
2022/10/05 21:41:58;;;;;;;36.40;4.23;;;;;;;20.27;nan;101811.13;6196463;23;20402;-90
2022/10/05 21:44:26;;;;;;;23.50;4.40;;;;;;;20.22;nan;101801.81;6195952;23;20418;-90
2022/10/05 21:46:57;;;;;;;19.90;3.73;;;;;;;20.23;nan;101809.91;6173363;23;20517;-89